sensor_id;sensor_type;location;lat;lon;timestamp;pressure;altitude;pressure_sealevel;temperature;humidity
22830;BME280;11581;51.250;6.778;2023-02-04T00:01:21;102714.59;;;11.50;64.14
22830;BME280;11581;51.250;6.778;2023-02-04T00:03:48;102764.75;;;11.71;64.19
22830;BME280;11581;51.250;6.778;2023-02-04T00:06:16;102731.47;;;11.50;64.19
22830;BME280;11581;51.250;6.778;2023-02-04T00:08:43;102746.97;;;11.58;64.36
22830;BME280;11581;51.250;6.778;2023-02-04T00:11:09;102704.63;;;11.26;64.43
22830;BME280;11581;51.250;6.778;2023-02-04T00:13:36;102776.53;;;11.69;64.59
22830;BME280;11581;51.250;6.778;2023-02-04T00:16:03;102783.59;;;11.70;64.51
22830;BME280;11581;51.250;6.778;2023-02-04T00:18:30;102780.91;;;11.70;64.50
22830;BME280;11581;51.250;6.778;2023-02-04T00:20:57;102782.72;;;11.69;64.41
22830;BME280;11581;51.250;6.778;2023-02-04T00:23:24;102784.44;;;11.70;64.39
22830;BME280;11581;51.250;6.778;2023-02-04T00:25:51;102784.44;;;11.70;64.58
22830;BME280;11581;51.250;6.778;2023-02-04T00:28:22;102778.22;;;11.70;64.43
22830;BME280;11581;51.250;6.778;2023-02-04T00:30:49;102783.59;;;11.70;64.70
22830;BME280;11581;51.250;6.778;2023-02-04T00:33:16;102779.81;;;11.60;64.57
22830;BME280;11581;51.250;6.778;2023-02-04T00:35:42;102788.16;;;11.68;64.60
22830;BME280;11581;51.250;6.778;2023-02-04T00:38:09;102791.81;;;11.67;64.72
22830;BME280;11581;51.250;6.778;2023-02-04T00:40:37;102775.53;;;11.57;64.75
22830;BME280;11581;51.250;6.778;2023-02-04T00:43:04;102783.31;;;11.60;64.64
22830;BME280;11581;51.250;6.778;2023-02-04T00:45:30;102771.13;;;11.56;64.89
22830;BME280;11581;51.250;6.778;2023-02-04T00:47:58;102733.47;;;11.34;64.59
22830;BME280;11581;51.250;6.778;2023-02-04T00:50:24;102785.81;;;11.63;64.76
22830;BME280;11581;51.250;6.778;2023-02-04T00:52:51;102733.06;;;11.27;64.65
22830;BME280;11581;51.250;6.778;2023-02-04T00:55:18;102793.94;;;11.62;64.74
22830;BME280;11581;51.250;6.778;2023-02-04T00:57:46;102785.16;;;11.60;64.56
22830;BME280;11581;51.250;6.778;2023-02-04T01:00:14;102740.31;;;11.25;64.51
22830;BME280;11581;51.250;6.778;2023-02-04T01:02:42;102775.50;;;11.45;64.64
22830;BME280;11581;51.250;6.778;2023-02-04T01:05:09;102800.41;;;11.58;64.42
22830;BME280;11581;51.250;6.778;2023-02-04T01:07:36;102683.38;;;10.86;64.48
22830;BME280;11581;51.250;6.778;2023-02-04T01:10:03;102791.31;;;11.48;64.50
22830;BME280;11581;51.250;6.778;2023-02-04T01:12:30;102818.41;;;11.56;64.53
22830;BME280;11581;51.250;6.778;2023-02-04T01:14:58;102802.97;;;11.47;64.48
22830;BME280;11581;51.250;6.778;2023-02-04T01:17:24;102765.09;;;11.27;64.68
22830;BME280;11581;51.250;6.778;2023-02-04T01:19:52;102800.63;;;11.55;64.60
22830;BME280;11581;51.250;6.778;2023-02-04T01:22:19;102782.03;;;11.41;64.66
22830;BME280;11581;51.250;6.778;2023-02-04T01:24:45;102809.63;;;11.54;64.71
22830;BME280;11581;51.250;6.778;2023-02-04T01:27:31;102777.09;;;11.34;64.47
22830;BME280;11581;51.250;6.778;2023-02-04T01:29:59;102790.81;;;11.43;64.40
22830;BME280;11581;51.250;6.778;2023-02-04T01:32:26;102782.44;;;11.34;64.58
22830;BME280;11581;51.250;6.778;2023-02-04T01:34:52;102819.66;;;11.50;64.73
22830;BME280;11581;51.250;6.778;2023-02-04T01:37:19;102833.88;;;11.51;64.63
22830;BME280;11581;51.250;6.778;2023-02-04T01:39:50;102829.50;;;11.50;64.68
22830;BME280;11581;51.250;6.778;2023-02-04T01:42:18;102843.81;;;11.49;64.66
22830;BME280;11581;51.250;6.778;2023-02-04T01:44:46;102845.53;;;11.50;64.76
22830;BME280;11581;51.250;6.778;2023-02-04T01:47:16;102842.84;;;11.50;64.50
22830;BME280;11581;51.250;6.778;2023-02-04T01:49:43;102660.41;;;10.44;64.93
22830;BME280;11581;51.250;6.778;2023-02-04T01:52:14;102720.53;;;10.76;64.85
22830;BME280;11581;51.250;6.778;2023-02-04T01:54:41;102824.75;;;11.41;64.87
22830;BME280;11581;51.250;6.778;2023-02-04T01:57:12;102648.13;;;10.15;64.20
22830;BME280;11581;51.250;6.778;2023-02-04T01:59:42;102858.78;;;11.51;64.56
22830;BME280;11581;51.250;6.778;2023-02-04T02:02:39;102853.44;;;11.51;64.28
22830;BME280;11581;51.250;6.778;2023-02-04T02:05:06;102806.56;;;11.20;64.40
22830;BME280;11581;51.250;6.778;2023-02-04T02:07:35;102851.09;;;11.47;64.53
22830;BME280;11581;51.250;6.778;2023-02-04T02:10:02;102848.50;;;11.45;64.64
22830;BME280;11581;51.250;6.778;2023-02-04T02:12:29;102851.19;;;11.45;64.69
22830;BME280;11581;51.250;6.778;2023-02-04T02:14:56;102853.19;;;11.42;64.68
22830;BME280;11581;51.250;6.778;2023-02-04T02:17:24;102827.72;;;11.23;64.92
22830;BME280;11581;51.250;6.778;2023-02-04T02:19:52;102824.47;;;11.18;64.69
22830;BME280;11581;51.250;6.778;2023-02-04T02:22:23;102821.69;;;11.07;64.74
22830;BME280;11581;51.250;6.778;2023-02-04T02:24:52;102867.72;;;11.38;64.75
22830;BME280;11581;51.250;6.778;2023-02-04T02:27:19;102862.38;;;11.38;64.82
22830;BME280;11581;51.250;6.778;2023-02-04T02:29:47;102871.38;;;11.37;64.82
22830;BME280;11581;51.250;6.778;2023-02-04T02:32:14;102861.06;;;11.30;64.91
22830;BME280;11581;51.250;6.778;2023-02-04T02:34:42;102874.13;;;11.35;64.87
22830;BME280;11581;51.250;6.778;2023-02-04T02:37:10;102865.75;;;11.27;64.72
22830;BME280;11581;51.250;6.778;2023-02-04T02:39:38;102866.06;;;11.22;64.94
22830;BME280;11581;51.250;6.778;2023-02-04T02:42:08;102880.31;;;11.35;64.88
22830;BME280;11581;51.250;6.778;2023-02-04T02:44:35;102875.84;;;11.36;64.89
22830;BME280;11581;51.250;6.778;2023-02-04T02:47:01;102869.28;;;11.27;64.85
22830;BME280;11581;51.250;6.778;2023-02-04T02:49:29;102859.00;;;11.21;64.86
22830;BME280;11581;51.250;6.778;2023-02-04T02:51:58;102885.66;;;11.35;64.74
22830;BME280;11581;51.250;6.778;2023-02-04T02:54:26;102836.16;;;11.03;64.54
22830;BME280;11581;51.250;6.778;2023-02-04T02:56:56;102711.16;;;10.30;64.73
22830;BME280;11581;51.250;6.778;2023-02-04T02:59:25;102882.25;;;11.33;64.63
22830;BME280;11581;51.250;6.778;2023-02-04T03:01:54;102885.03;;;11.32;64.71
22830;BME280;11581;51.250;6.778;2023-02-04T03:04:25;102845.63;;;11.09;64.67
22830;BME280;11581;51.250;6.778;2023-02-04T03:06:53;102877.72;;;11.21;64.80
22830;BME280;11581;51.250;6.778;2023-02-04T03:09:20;102892.28;;;11.30;64.84
22830;BME280;11581;51.250;6.778;2023-02-04T03:11:50;102896.88;;;11.28;64.91
22830;BME280;11581;51.250;6.778;2023-02-04T03:14:17;102903.06;;;11.28;64.88
22830;BME280;11581;51.250;6.778;2023-02-04T03:16:46;102901.34;;;11.27;64.82
22830;BME280;11581;51.250;6.778;2023-02-04T03:19:15;102887.72;;;11.18;65.10
22830;BME280;11581;51.250;6.778;2023-02-04T03:21:43;102892.03;;;11.20;65.03
22830;BME280;11581;51.250;6.778;2023-02-04T03:24:11;102909.38;;;11.27;64.99
22830;BME280;11581;51.250;6.778;2023-02-04T03:26:37;102909.38;;;11.27;65.02
22830;BME280;11581;51.250;6.778;2023-02-04T03:29:05;102880.53;;;11.06;64.90
22830;BME280;11581;51.250;6.778;2023-02-04T03:31:32;102902.53;;;11.23;65.00
22830;BME280;11581;51.250;6.778;2023-02-04T03:34:00;102884.81;;;11.08;65.02
22830;BME280;11581;51.250;6.778;2023-02-04T03:36:26;102852.00;;;10.80;65.10
22830;BME280;11581;51.250;6.778;2023-02-04T03:38:53;102917.19;;;11.16;65.26
22830;BME280;11581;51.250;6.778;2023-02-04T03:41:21;102919.13;;;11.14;65.54
22830;BME280;11581;51.250;6.778;2023-02-04T03:43:48;102926.38;;;11.12;65.39
22830;BME280;11581;51.250;6.778;2023-02-04T03:46:14;102933.56;;;11.12;65.58
22830;BME280;11581;51.250;6.778;2023-02-04T03:48:41;102920.19;;;11.12;65.68
22830;BME280;11581;51.250;6.778;2023-02-04T03:51:09;102929.16;;;11.11;65.58
22830;BME280;11581;51.250;6.778;2023-02-04T03:53:35;102913.94;;;10.99;65.81
22830;BME280;11581;51.250;6.778;2023-02-04T03:56:02;102928.41;;;11.09;65.85
22830;BME280;11581;51.250;6.778;2023-02-04T03:58:29;102896.75;;;10.89;65.89
22830;BME280;11581;51.250;6.778;2023-02-04T04:00:56;102924.88;;;11.08;65.94
22830;BME280;11581;51.250;6.778;2023-02-04T04:03:22;102868.50;;;10.72;65.89
22830;BME280;11581;51.250;6.778;2023-02-04T04:05:49;102925.06;;;11.05;65.85
22830;BME280;11581;51.250;6.778;2023-02-04T04:08:17;102906.13;;;10.96;65.94
22830;BME280;11581;51.250;6.778;2023-02-04T04:10:44;102906.59;;;10.88;65.92
22830;BME280;11581;51.250;6.778;2023-02-04T04:13:10;102826.41;;;10.49;66.09
22830;BME280;11581;51.250;6.778;2023-02-04T04:15:37;102914.78;;;10.99;66.10
22830;BME280;11581;51.250;6.778;2023-02-04T04:18:04;102857.53;;;10.63;66.17
22830;BME280;11581;51.250;6.778;2023-02-04T04:20:30;102915.78;;;10.84;66.22
22830;BME280;11581;51.250;6.778;2023-02-04T04:22:57;102937.38;;;10.94;66.28
22830;BME280;11581;51.250;6.778;2023-02-04T04:25:25;102936.72;;;10.90;66.36
22830;BME280;11581;51.250;6.778;2023-02-04T04:27:52;102848.63;;;10.36;66.29
22830;BME280;11581;51.250;6.778;2023-02-04T04:30:18;102941.50;;;10.85;66.45
22830;BME280;11581;51.250;6.778;2023-02-04T04:32:45;102924.44;;;10.74;66.54
22830;BME280;11581;51.250;6.778;2023-02-04T04:35:12;102944.56;;;10.79;66.60
22830;BME280;11581;51.250;6.778;2023-02-04T04:37:38;102887.00;;;10.33;66.50
22830;BME280;11581;51.250;6.778;2023-02-04T04:40:05;102941.72;;;10.68;66.91
22830;BME280;11581;51.250;6.778;2023-02-04T04:42:34;102965.41;;;10.73;66.95
22830;BME280;11581;51.250;6.778;2023-02-04T04:45:00;102946.47;;;10.63;67.49
22830;BME280;11581;51.250;6.778;2023-02-04T04:47:27;102896.81;;;10.33;67.23
22830;BME280;11581;51.250;6.778;2023-02-04T04:49:53;102960.31;;;10.70;67.24
22830;BME280;11581;51.250;6.778;2023-02-04T04:52:20;102958.09;;;10.62;67.44
22830;BME280;11581;51.250;6.778;2023-02-04T04:54:47;102968.41;;;10.68;67.42
22830;BME280;11581;51.250;6.778;2023-02-04T04:57:13;102968.41;;;10.68;67.45
22830;BME280;11581;51.250;6.778;2023-02-04T04:59:41;102966.66;;;10.67;67.33
22830;BME280;11581;51.250;6.778;2023-02-04T05:02:08;102964.09;;;10.66;67.47
22830;BME280;11581;51.250;6.778;2023-02-04T05:04:34;102966.84;;;10.64;67.46
22830;BME280;11581;51.250;6.778;2023-02-04T05:07:01;102972.19;;;10.64;67.54
22830;BME280;11581;51.250;6.778;2023-02-04T05:09:28;102973.16;;;10.63;67.45
22830;BME280;11581;51.250;6.778;2023-02-04T05:11:55;102975.03;;;10.61;67.64
22830;BME280;11581;51.250;6.778;2023-02-04T05:14:22;102978.78;;;10.59;67.58
22830;BME280;11581;51.250;6.778;2023-02-04T05:16:49;102846.06;;;9.77;67.53
22830;BME280;11581;51.250;6.778;2023-02-04T05:19:16;102946.44;;;10.21;67.64
22830;BME280;11581;51.250;6.778;2023-02-04T05:21:43;102975.22;;;10.44;67.74
22830;BME280;11581;51.250;6.778;2023-02-04T05:24:10;102976.19;;;10.43;67.75
22830;BME280;11581;51.250;6.778;2023-02-04T05:26:36;102977.13;;;10.42;67.85
22830;BME280;11581;51.250;6.778;2023-02-04T05:29:03;102996.31;;;10.49;68.02
22830;BME280;11581;51.250;6.778;2023-02-04T05:31:30;103003.53;;;10.47;68.07
22830;BME280;11581;51.250;6.778;2023-02-04T05:33:58;102979.59;;;10.31;68.05
22830;BME280;11581;51.250;6.778;2023-02-04T05:36:25;102975.97;;;10.32;68.08
22830;BME280;11581;51.250;6.778;2023-02-04T05:38:51;102995.63;;;10.45;68.04
22830;BME280;11581;51.250;6.778;2023-02-04T05:41:18;103006.38;;;10.44;68.12
22830;BME280;11581;51.250;6.778;2023-02-04T05:43:44;103015.34;;;10.43;68.10
22830;BME280;11581;51.250;6.778;2023-02-04T05:46:11;103014.47;;;10.42;68.13
22830;BME280;11581;51.250;6.778;2023-02-04T05:48:38;103014.47;;;10.42;68.19
22830;BME280;11581;51.250;6.778;2023-02-04T05:51:06;102973.38;;;10.17;68.26
22830;BME280;11581;51.250;6.778;2023-02-04T05:53:32;103021.72;;;10.40;68.22
22830;BME280;11581;51.250;6.778;2023-02-04T05:55:59;103027.81;;;10.42;68.29
22830;BME280;11581;51.250;6.778;2023-02-04T05:58:26;102988.41;;;10.18;68.28
22830;BME280;11581;51.250;6.778;2023-02-04T06:00:57;102973.81;;;10.09;68.19
22830;BME280;11581;51.250;6.778;2023-02-04T06:03:24;103031.53;;;10.40;68.30
22830;BME280;11581;51.250;6.778;2023-02-04T06:05:51;103028.97;;;10.38;68.38
22830;BME280;11581;51.250;6.778;2023-02-04T06:08:19;103029.81;;;10.39;68.47
22830;BME280;11581;51.250;6.778;2023-02-04T06:10:46;103034.28;;;10.38;68.37
22830;BME280;11581;51.250;6.778;2023-02-04T06:13:13;102987.94;;;10.11;68.32
22830;BME280;11581;51.250;6.778;2023-02-04T06:15:39;103032.00;;;10.32;68.43
22830;BME280;11581;51.250;6.778;2023-02-04T06:18:06;103017.56;;;10.21;68.40
22830;BME280;11581;51.250;6.778;2023-02-04T06:20:33;103051.25;;;10.37;68.51
22830;BME280;11581;51.250;6.778;2023-02-04T06:23:00;103055.63;;;10.38;68.68
22830;BME280;11581;51.250;6.778;2023-02-04T06:25:28;103044.97;;;10.38;68.62
22830;BME280;11581;51.250;6.778;2023-02-04T06:27:55;103053.75;;;10.40;68.74
22830;BME280;11581;51.250;6.778;2023-02-04T06:30:21;103043.06;;;10.40;68.56
22830;BME280;11581;51.250;6.778;2023-02-04T06:32:48;103054.63;;;10.41;68.49
22830;BME280;11581;51.250;6.778;2023-02-04T06:35:15;103049.28;;;10.41;68.51
22830;BME280;11581;51.250;6.778;2023-02-04T06:37:42;103050.13;;;10.41;68.49
22830;BME280;11581;51.250;6.778;2023-02-04T06:40:10;103054.63;;;10.41;68.54
22830;BME280;11581;51.250;6.778;2023-02-04T06:42:38;103049.16;;;10.42;68.58
22830;BME280;11581;51.250;6.778;2023-02-04T06:45:06;103030.63;;;10.25;68.32
22830;BME280;11581;51.250;6.778;2023-02-04T06:47:33;103053.56;;;10.43;68.20
22830;BME280;11581;51.250;6.778;2023-02-04T06:49:59;103066.91;;;10.43;68.38
22830;BME280;11581;51.250;6.778;2023-02-04T06:52:26;103058.91;;;10.43;68.23
22830;BME280;11581;51.250;6.778;2023-02-04T06:54:52;103019.59;;;10.17;68.23
22830;BME280;11581;51.250;6.778;2023-02-04T06:57:19;103067.66;;;10.45;68.17
22830;BME280;11581;51.250;6.778;2023-02-04T06:59:47;103041.72;;;10.33;68.12
22830;BME280;11581;51.250;6.778;2023-02-04T07:02:14;103065.78;;;10.47;68.11
22830;BME280;11581;51.250;6.778;2023-02-04T07:04:40;103059.97;;;10.41;68.07
22830;BME280;11581;51.250;6.778;2023-02-04T07:07:08;103010.41;;;10.07;68.18
22830;BME280;11581;51.250;6.778;2023-02-04T07:09:35;103013.56;;;10.14;68.19
22830;BME280;11581;51.250;6.778;2023-02-04T07:12:01;103067.84;;;10.42;68.16
22830;BME280;11581;51.250;6.778;2023-02-04T07:14:28;103080.81;;;10.48;68.14
22830;BME280;11581;51.250;6.778;2023-02-04T07:16:56;103077.31;;;10.48;68.23
22830;BME280;11581;51.250;6.778;2023-02-04T07:19:23;103072.81;;;10.48;68.24
22830;BME280;11581;51.250;6.778;2023-02-04T07:21:49;103081.59;;;10.50;68.30
22830;BME280;11581;51.250;6.778;2023-02-04T07:24:18;103065.47;;;10.38;68.30
22830;BME280;11581;51.250;6.778;2023-02-04T07:26:45;103089.50;;;10.52;68.19
22830;BME280;11581;51.250;6.778;2023-02-04T07:29:11;103080.91;;;10.47;68.27
22830;BME280;11581;51.250;6.778;2023-02-04T07:31:38;103016.50;;;10.09;68.17
22830;BME280;11581;51.250;6.778;2023-02-04T07:34:06;103086.34;;;10.45;68.31
22830;BME280;11581;51.250;6.778;2023-02-04T07:36:33;103069.25;;;10.34;68.42
22830;BME280;11581;51.250;6.778;2023-02-04T07:38:59;103102.59;;;10.56;68.58
22830;BME280;11581;51.250;6.778;2023-02-04T07:41:26;103102.41;;;10.59;68.45
22830;BME280;11581;51.250;6.778;2023-02-04T07:43:53;103113.81;;;10.61;68.55
22830;BME280;11581;51.250;6.778;2023-02-04T07:46:19;103108.31;;;10.64;68.37
22830;BME280;11581;51.250;6.778;2023-02-04T07:48:46;103112.72;;;10.65;68.36
22830;BME280;11581;51.250;6.778;2023-02-04T07:51:14;103103.94;;;10.63;68.40
22830;BME280;11581;51.250;6.778;2023-02-04T07:53:41;102940.84;;;9.67;68.24
22830;BME280;11581;51.250;6.778;2023-02-04T07:56:07;103116.81;;;10.71;68.44
22830;BME280;11581;51.250;6.778;2023-02-04T07:58:34;103122.06;;;10.72;68.31
22830;BME280;11581;51.250;6.778;2023-02-04T08:01:00;103130.81;;;10.74;68.33
22830;BME280;11581;51.250;6.778;2023-02-04T08:03:27;103125.41;;;10.76;68.28
22830;BME280;11581;51.250;6.778;2023-02-04T08:05:54;103137.72;;;10.78;68.25
22830;BME280;11581;51.250;6.778;2023-02-04T08:08:22;103129.91;;;10.75;68.27
22830;BME280;11581;51.250;6.778;2023-02-04T08:10:48;103128.47;;;10.84;68.42
22830;BME280;11581;51.250;6.778;2023-02-04T08:13:15;103124.00;;;10.84;68.36
22830;BME280;11581;51.250;6.778;2023-02-04T08:15:42;103143.09;;;10.92;68.49
22830;BME280;11581;51.250;6.778;2023-02-04T08:18:08;103147.09;;;10.99;68.50
22830;BME280;11581;51.250;6.778;2023-02-04T08:20:35;103171.72;;;11.04;68.42
22830;BME280;11581;51.250;6.778;2023-02-04T08:23:02;103153.50;;;11.11;68.37
22830;BME280;11581;51.250;6.778;2023-02-04T08:25:30;103189.66;;;11.16;68.29
22830;BME280;11581;51.250;6.778;2023-02-04T08:27:57;103164.41;;;11.22;68.10
22830;BME280;11581;51.250;6.778;2023-02-04T08:30:23;103167.72;;;11.25;68.26
22830;BME280;11581;51.250;6.778;2023-02-04T08:32:50;103136.53;;;11.12;68.10
22830;BME280;11581;51.250;6.778;2023-02-04T08:35:17;103167.53;;;11.28;68.06
22830;BME280;11581;51.250;6.778;2023-02-04T08:37:44;103131.94;;;11.14;67.97
22830;BME280;11581;51.250;6.778;2023-02-04T08:40:11;103137.78;;;11.20;67.64
22830;BME280;11581;51.250;6.778;2023-02-04T08:42:39;103151.34;;;11.31;67.21
22830;BME280;11581;51.250;6.778;2023-02-04T08:45:06;103182.28;;;11.50;67.29
22830;BME280;11581;51.250;6.778;2023-02-04T08:47:33;103158.00;;;11.38;67.11
22830;BME280;11581;51.250;6.778;2023-02-04T08:49:59;103163.16;;;11.42;67.20
22830;BME280;11581;51.250;6.778;2023-02-04T08:52:26;103187.00;;;11.59;67.26
22830;BME280;11581;51.250;6.778;2023-02-04T08:54:53;103178.25;;;11.57;67.34
22830;BME280;11581;51.250;6.778;2023-02-04T08:57:20;103189.06;;;11.69;67.54
22830;BME280;11581;51.250;6.778;2023-02-04T08:59:48;103186.88;;;11.76;67.33
22830;BME280;11581;51.250;6.778;2023-02-04T09:02:14;103189.91;;;11.84;67.18
22830;BME280;11581;51.250;6.778;2023-02-04T09:04:41;103110.41;;;11.45;66.93
22830;BME280;11581;51.250;6.778;2023-02-04T09:07:07;103193.31;;;12.00;66.94
22830;BME280;11581;51.250;6.778;2023-02-04T09:09:34;103215.19;;;12.06;66.69
22830;BME280;11581;51.250;6.778;2023-02-04T09:12:01;103200.66;;;12.10;66.42
22830;BME280;11581;51.250;6.778;2023-02-04T09:14:27;103199.41;;;12.16;66.30
22830;BME280;11581;51.250;6.778;2023-02-04T09:16:55;103104.00;;;11.62;65.74
22830;BME280;11581;51.250;6.778;2023-02-04T09:19:22;103205.31;;;12.21;65.88
22830;BME280;11581;51.250;6.778;2023-02-04T09:21:50;103044.09;;;11.23;65.77
22830;BME280;11581;51.250;6.778;2023-02-04T09:24:17;103211.03;;;12.29;65.87
22830;BME280;11581;51.250;6.778;2023-02-04T09:26:43;103204.50;;;12.33;65.96
22830;BME280;11581;51.250;6.778;2023-02-04T09:29:10;103204.97;;;12.39;66.16
22830;BME280;11581;51.250;6.778;2023-02-04T09:31:37;103208.13;;;12.46;66.11
22830;BME280;11581;51.250;6.778;2023-02-04T09:34:05;103204.28;;;12.50;65.98
22830;BME280;11581;51.250;6.778;2023-02-04T09:36:31;103141.56;;;12.27;66.02
22830;BME280;11581;51.250;6.778;2023-02-04T09:39:03;103197.47;;;12.71;65.82
22830;BME280;11581;51.250;6.778;2023-02-04T09:41:30;103204.41;;;12.87;65.63
22830;BME280;11581;51.250;6.778;2023-02-04T09:43:58;103205.41;;;12.99;65.56
22830;BME280;11581;51.250;6.778;2023-02-04T09:46:26;103216.25;;;13.10;65.23
22830;BME280;11581;51.250;6.778;2023-02-04T09:48:54;103202.44;;;13.16;65.09
22830;BME280;11581;51.250;6.778;2023-02-04T09:51:25;103218.22;;;13.33;63.87
22830;BME280;11581;51.250;6.778;2023-02-04T09:53:57;103221.00;;;13.44;64.07
22830;BME280;11581;51.250;6.778;2023-02-04T09:59:10;103244.81;;;13.61;62.85
22830;BME280;11581;51.250;6.778;2023-02-04T10:01:37;103216.28;;;13.60;63.64
22830;BME280;11581;51.250;6.778;2023-02-04T10:04:04;103247.50;;;13.74;63.24
22830;BME280;11581;51.250;6.778;2023-02-04T10:06:33;103230.66;;;13.72;62.75
22830;BME280;11581;51.250;6.778;2023-02-04T10:09:02;103236.22;;;13.81;63.32
22830;BME280;11581;51.250;6.778;2023-02-04T10:11:32;103237.72;;;13.85;62.26
22830;BME280;11581;51.250;6.778;2023-02-04T10:14:01;103251.97;;;13.86;63.14
22830;BME280;11581;51.250;6.778;2023-02-04T10:16:29;103245.09;;;13.94;62.25
22830;BME280;11581;51.250;6.778;2023-02-04T10:18:57;103243.16;;;13.96;62.36
22830;BME280;11581;51.250;6.778;2023-02-04T10:21:27;103195.03;;;13.32;61.65
22830;BME280;11581;51.250;6.778;2023-02-04T10:23:57;103241.13;;;13.87;61.00
22830;BME280;11581;51.250;6.778;2023-02-04T10:26:26;103133.81;;;13.26;61.11
22830;BME280;11581;51.250;6.778;2023-02-04T10:29:00;103237.72;;;13.85;60.29
22830;BME280;11581;51.250;6.778;2023-02-04T10:31:30;103244.78;;;13.86;61.04
22830;BME280;11581;51.250;6.778;2023-02-04T10:34:10;103246.94;;;13.81;60.15
22830;BME280;11581;51.250;6.778;2023-02-04T10:36:38;103242.75;;;13.77;61.78
22830;BME280;11581;51.250;6.778;2023-02-04T10:39:11;103244.94;;;13.72;60.80
22830;BME280;11581;51.250;6.778;2023-02-04T10:41:44;103234.84;;;13.63;60.88
22830;BME280;11581;51.250;6.778;2023-02-04T10:44:12;103241.41;;;13.59;61.82
22830;BME280;11581;51.250;6.778;2023-02-04T10:46:39;103247.50;;;13.61;62.15
22830;BME280;11581;51.250;6.778;2023-02-04T10:49:17;103248.69;;;13.57;61.47
22830;BME280;11581;51.250;6.778;2023-02-04T10:51:44;103234.72;;;13.52;62.89
22830;BME280;11581;51.250;6.778;2023-02-04T10:54:13;103239.88;;;13.55;62.44
22830;BME280;11581;51.250;6.778;2023-02-04T10:57:07;103243.19;;;13.71;62.20
22830;BME280;11581;51.250;6.778;2023-02-04T10:59:35;103103.78;;;12.96;63.29
22830;BME280;11581;51.250;6.778;2023-02-04T11:02:23;103246.50;;;14.00;61.03
22830;BME280;11581;51.250;6.778;2023-02-04T11:04:52;103244.94;;;14.21;62.97
22830;BME280;11581;51.250;6.778;2023-02-04T11:07:19;103240.84;;;14.40;62.82
22830;BME280;11581;51.250;6.778;2023-02-04T11:09:48;103240.97;;;14.62;61.72
22830;BME280;11581;51.250;6.778;2023-02-04T11:12:35;103238.38;;;14.84;60.54
22830;BME280;11581;51.250;6.778;2023-02-04T11:15:02;103232.38;;;15.04;61.74
22830;BME280;11581;51.250;6.778;2023-02-04T11:17:29;103251.00;;;15.29;60.91
22830;BME280;11581;51.250;6.778;2023-02-04T11:19:56;103231.13;;;15.43;60.16
22830;BME280;11581;51.250;6.778;2023-02-04T11:22:43;103245.72;;;15.63;57.16
22830;BME280;11581;51.250;6.778;2023-02-04T11:25:31;103243.03;;;15.74;56.62
22830;BME280;11581;51.250;6.778;2023-02-04T11:27:59;103221.75;;;15.59;58.47
22830;BME280;11581;51.250;6.778;2023-02-04T11:30:31;103240.09;;;15.88;56.97
22830;BME280;11581;51.250;6.778;2023-02-04T11:33:01;103238.91;;;15.92;56.42
22830;BME280;11581;51.250;6.778;2023-02-04T11:35:29;103208.56;;;15.79;58.33
22830;BME280;11581;51.250;6.778;2023-02-04T11:37:57;103229.34;;;15.99;57.82
22830;BME280;11581;51.250;6.778;2023-02-04T11:40:29;103233.50;;;16.03;55.26
22830;BME280;11581;51.250;6.778;2023-02-04T11:43:07;103247.06;;;16.23;54.67
22830;BME280;11581;51.250;6.778;2023-02-04T11:45:37;103193.00;;;16.04;56.82
22830;BME280;11581;51.250;6.778;2023-02-04T11:48:11;103255.00;;;16.47;54.85
22830;BME280;11581;51.250;6.778;2023-02-04T11:50:39;103253.13;;;16.58;57.04
22830;BME280;11581;51.250;6.778;2023-02-04T11:53:09;103251.25;;;16.70;54.38
22830;BME280;11581;51.250;6.778;2023-02-04T11:55:43;103195.38;;;16.51;54.08
22830;BME280;11581;51.250;6.778;2023-02-04T11:58:13;103250.94;;;16.95;53.90
22830;BME280;11581;51.250;6.778;2023-02-04T12:00:41;103069.78;;;16.08;55.42
22830;BME280;11581;51.250;6.778;2023-02-04T12:03:21;103232.91;;;17.16;52.39
22830;BME280;11581;51.250;6.778;2023-02-04T12:05:48;103240.41;;;17.33;54.75
22830;BME280;11581;51.250;6.778;2023-02-04T12:08:24;103245.78;;;17.44;51.07
22830;BME280;11581;51.250;6.778;2023-02-04T12:11:00;103244.00;;;17.54;51.20
22830;BME280;11581;51.250;6.778;2023-02-04T12:13:29;103243.91;;;17.65;53.01
22830;BME280;11581;51.250;6.778;2023-02-04T12:15:58;103250.94;;;17.77;52.20
22830;BME280;11581;51.250;6.778;2023-02-04T12:18:26;103246.56;;;17.86;53.04
22830;BME280;11581;51.250;6.778;2023-02-04T12:20:53;103241.78;;;17.89;52.39
22830;BME280;11581;51.250;6.778;2023-02-04T12:23:20;103240.06;;;17.88;52.86
22830;BME280;11581;51.250;6.778;2023-02-04T12:25:46;103224.13;;;17.85;53.02
22830;BME280;11581;51.250;6.778;2023-02-04T12:28:13;103162.38;;;17.61;53.13
22830;BME280;11581;51.250;6.778;2023-02-04T12:30:41;103244.28;;;18.21;52.48
22830;BME280;11581;51.250;6.778;2023-02-04T12:33:08;103246.41;;;18.47;53.89
22830;BME280;11581;51.250;6.778;2023-02-04T12:35:34;103223.66;;;18.59;53.05
22830;BME280;11581;51.250;6.778;2023-02-04T12:38:01;103241.88;;;18.95;52.74
22830;BME280;11581;51.250;6.778;2023-02-04T12:40:28;103242.13;;;19.21;53.20
22830;BME280;11581;51.250;6.778;2023-02-04T12:42:55;103244.84;;;19.49;52.33
22830;BME280;11581;51.250;6.778;2023-02-04T12:45:21;103226.44;;;19.62;51.10
22830;BME280;11581;51.250;6.778;2023-02-04T12:47:49;103207.47;;;19.62;49.16
22830;BME280;11581;51.250;6.778;2023-02-04T12:50:17;103239.66;;;20.02;48.65
22830;BME280;11581;51.250;6.778;2023-02-04T12:52:48;103253.19;;;20.12;48.26
22830;BME280;11581;51.250;6.778;2023-02-04T12:55:15;103253.59;;;20.17;47.70
22830;BME280;11581;51.250;6.778;2023-02-04T12:57:42;103246.16;;;20.19;47.40